Sunday, June 17, 2018, 10:13 PM EDT
Back to Local

KGNR, Greenville

Location: Greenville, ME, United States Lat: 45.467
Local Time: 10:13 PM EDT ( 2:13 GMT) Lon: -69.583
Time Zone: US/Eastern Elev: 1400 ft

Show me the last for .
Show Decoded

2018-06-17 21:56 METAR KGNR 180156Z AUTO 15007KT 14/10 A3001 RMK AO1 SLP164 T01440100 =
2018-06-17 20:56 METAR KGNR 180056Z AUTO 15008KT 16/11 A3002 RMK AO1 SLP166 T01560106 =
2018-06-17 19:56 METAR KGNR 172356Z AUTO 15006KT 17/12 A3004 RMK AO1 SLP172 T01720117 10239 20172
                 55001 =
2018-06-17 18:56 METAR KGNR 172256Z AUTO 15010G17KT 19/13 A3003 RMK AO1 SLP169 T01890128 =
2018-06-17 17:56 METAR KGNR 172156Z AUTO 14013G18KT 22/14 A3003 RMK AO1 SLP168 T02220144 =
2018-06-17 16:56 METAR KGNR 172056Z AUTO 13008KT 23/14 A3004 RMK AO1 SLP171 T02280144 58008 =
2018-06-17 15:56 METAR KGNR 171956Z AUTO 14010KT 23/13 A3005 RMK AO1 SLP173 T02330133 =
2018-06-17 14:56 METAR KGNR 171856Z AUTO 15007KT 22/14 A3006 RMK AO1 SLP176 T02220139 =
2018-06-17 13:56 METAR KGNR 171756Z AUTO 15007KT 22/13 A3006 RMK AO1 SLP179 T02170133 10222 20150
                 58006 =
2018-06-17 12:56 METAR KGNR 171656Z AUTO 15005KT 21/13 A3009 RMK AO1 SLP187 T02060128 =
2018-06-17 11:56 METAR KGNR 171556Z AUTO 12008KT 20/13 A3008 RMK AO1 SLP183 T02000128 =
2018-06-17 10:56 METAR KGNR 171456Z AUTO 12007KT 19/12 A3008 RMK AO1 SLP186 T01890122 51006 =
2018-06-17 09:56 METAR KGNR 171356Z AUTO 15005KT 18/12 A3008 RMK AO1 SLP185 T01830117 =
2018-06-17 08:56 METAR KGNR 171256Z AUTO 00000KT 17/11 A3008 RMK AO1 SLP185 T01670106 =
2018-06-17 07:56 METAR KGNR 171156Z AUTO 15004KT 15/10 A3007 RMK AO1 SLP180 T01500100 10161 20133
                 53011 =
2018-06-17 06:56 METAR KGNR 171056Z AUTO 00000KT 16/10 A3006 RMK AO1 SLP177 T01560100 =
2018-06-17 05:56 METAR KGNR 170956Z AUTO 14004KT 14/09 A3003 RMK AO1 SLP168 T01390094 =
2018-06-17 04:56 METAR KGNR 170856Z AUTO 00000KT 14/08 A3003 RMK AO1 SLP167 T01440083 53019 =
2018-06-17 03:56 METAR KGNR 170756Z AUTO 12004KT 14/08 A3000 RMK AO1 SLP156 T01440078 =
2018-06-17 02:56 METAR KGNR 170656Z AUTO 04004KT 16/07 A2998 RMK AO1 SLP149 T01610072 =
2018-06-17 01:56 METAR KGNR 170556Z AUTO 04004KT 16/08 A2997 RMK AO1 SLP146 T01610083 10211 20150
                 55000 =
2018-06-17 00:56 METAR KGNR 170456Z AUTO 01004KT 16/09 A2998 RMK AO1 SLP148 T01560089 402560122 =
2018-06-16 23:56 METAR KGNR 170356Z AUTO 34007KT 18/07 A2997 RMK AO1 SLP145 T01830072 =
2018-06-16 22:56 METAR KGNR 170256Z AUTO 32009KT 18/07 A2997 RMK AO1 SLP146 T01830072 51019 =

Support USWX by starting your Amazon purchase here.